createdAt,value
2023-04-09T00:02:21.936Z,4.11
2023-04-09T00:05:28.383Z,4.09
2023-04-09T00:08:36.903Z,4.15
2023-04-09T00:11:43.361Z,4.20
2023-04-09T00:14:48.836Z,4.24
2023-04-09T00:17:56.565Z,4.27
2023-04-09T00:21:02.146Z,4.23
2023-04-09T00:24:12.006Z,4.17
2023-04-09T00:27:17.448Z,4.12
2023-04-09T00:30:24.248Z,4.10
2023-04-09T00:33:29.747Z,4.08
2023-04-09T00:36:36.094Z,4.12
2023-04-09T00:39:44.377Z,4.16
2023-04-09T00:42:51.640Z,4.23
2023-04-09T00:45:57.588Z,4.38
2023-04-09T00:49:04.007Z,4.47
2023-04-09T00:52:10.658Z,4.52
2023-04-09T00:55:21.788Z,4.50
2023-04-09T00:58:27.690Z,4.52
2023-04-09T01:01:34.795Z,4.48
2023-04-09T01:04:44.768Z,4.41
2023-04-09T01:08:06.956Z,4.32
2023-04-09T01:11:35.616Z,4.21
2023-04-09T01:14:58.023Z,4.21
2023-04-09T01:18:13.348Z,4.15
2023-04-09T01:21:26.879Z,4.07
2023-04-09T01:24:48.148Z,3.98
2023-04-09T01:28:33.117Z,3.89
2023-04-09T01:31:43.543Z,3.82
2023-04-09T01:34:52.604Z,3.75
2023-04-09T01:38:00.436Z,3.73
2023-04-09T01:41:09.269Z,3.75
2023-04-09T01:44:20.004Z,3.78
2023-04-09T01:47:27.527Z,3.80
2023-04-09T01:50:33.360Z,3.81
2023-04-09T01:53:40.106Z,3.87
2023-04-09T01:56:47.569Z,3.88
2023-04-09T01:59:58.680Z,3.90
2023-04-09T02:03:14.256Z,3.89
2023-04-09T02:06:34.224Z,3.90
2023-04-09T02:09:43.567Z,3.92
2023-04-09T02:12:55.621Z,3.86
2023-04-09T02:16:06.877Z,3.86
2023-04-09T02:19:13.937Z,3.84
2023-04-09T02:22:20.814Z,3.88
2023-04-09T02:25:29.929Z,3.92
2023-04-09T02:28:35.396Z,3.94
2023-04-09T02:31:45.508Z,4.05
2023-04-09T02:34:51.382Z,4.10
2023-04-09T02:37:57.860Z,4.16
2023-04-09T02:41:04.011Z,4.22
2023-04-09T02:44:10.530Z,4.21
2023-04-09T02:47:18.892Z,4.18
2023-04-09T02:50:27.368Z,4.15
2023-04-09T02:53:34.629Z,4.08
2023-04-09T02:56:41.071Z,4.03
2023-04-09T02:59:46.691Z,3.92
2023-04-09T03:02:55.993Z,3.82
2023-04-09T03:06:01.789Z,3.79
2023-04-09T03:09:08.150Z,3.79
2023-04-09T03:12:13.613Z,3.76
2023-04-09T03:15:20.413Z,3.74
2023-04-09T03:18:28.692Z,3.73
2023-04-09T03:21:35.194Z,3.68
2023-04-09T03:24:40.804Z,3.64
2023-04-09T03:27:47.149Z,3.62
2023-04-09T03:31:00.282Z,3.60
2023-04-09T03:34:09.864Z,3.59
2023-04-09T03:37:15.998Z,3.58
2023-04-09T03:40:24.042Z,3.62
2023-04-09T03:43:29.955Z,3.65
2023-04-09T03:46:36.915Z,3.67
2023-04-09T03:49:46.048Z,3.75
2023-04-09T03:53:00.484Z,3.82
2023-04-09T03:56:07.160Z,3.90
2023-04-09T03:59:14.867Z,3.97
2023-04-09T04:02:23.788Z,4.03
2023-04-09T04:05:41.302Z,4.06
2023-04-09T04:08:49.288Z,4.06
2023-04-09T04:11:57.264Z,4.15
2023-04-09T04:15:06.609Z,4.15
2023-04-09T04:18:26.715Z,4.43
2023-04-09T04:21:35.551Z,4.55
2023-04-09T04:24:42.611Z,4.62
2023-04-09T04:27:48.421Z,4.70
2023-04-09T04:30:58.281Z,4.80
2023-04-09T04:34:05.357Z,4.76
2023-04-09T04:37:17.255Z,4.72
2023-04-09T04:40:22.951Z,4.71
2023-04-09T04:43:36.662Z,4.72
2023-04-09T04:46:42.587Z,4.69
2023-04-09T04:49:50.486Z,4.65
2023-04-09T04:52:58.917Z,4.63
2023-04-09T04:56:10.328Z,4.69
2023-04-09T04:59:17.342Z,4.76
2023-04-09T05:02:35.029Z,4.83
2023-04-09T05:06:00.103Z,4.87
2023-04-09T05:09:16.911Z,4.91
2023-04-09T05:12:38.524Z,4.94
2023-04-09T05:15:46.109Z,4.91
2023-04-09T05:18:52.123Z,4.88
2023-04-09T05:21:58.738Z,4.82
2023-04-09T05:25:07.957Z,4.79
2023-04-09T05:28:17.982Z,4.78
2023-04-09T05:31:25.194Z,4.78
2023-04-09T05:34:36.583Z,4.78
2023-04-09T05:37:43.378Z,4.93
2023-04-09T05:40:54.426Z,5.05
2023-04-09T05:44:00.936Z,5.19
2023-04-09T05:47:08.873Z,5.28
2023-04-09T05:50:22.956Z,5.34
2023-04-09T05:53:32.371Z,5.37
2023-04-09T05:56:40.688Z,5.41
2023-04-09T05:59:47.138Z,5.51
2023-04-09T06:02:54.537Z,5.53
2023-04-09T06:06:00.998Z,5.47
2023-04-09T06:09:07.051Z,5.47
2023-04-09T06:12:19.886Z,5.46
2023-04-09T06:15:25.494Z,5.48
2023-04-09T06:18:34.043Z,5.51
2023-04-09T06:21:40.970Z,5.47
2023-04-09T06:24:47.294Z,5.57
2023-04-09T06:27:55.704Z,5.63
2023-04-09T06:31:02.744Z,5.68
2023-04-09T06:34:08.174Z,5.75
2023-04-09T06:37:14.699Z,5.78
2023-04-09T06:40:22.969Z,5.80
2023-04-09T06:43:32.627Z,5.83
2023-04-09T06:46:38.311Z,5.91
2023-04-09T06:49:44.939Z,5.92
2023-04-09T06:52:50.365Z,5.96
2023-04-09T06:55:57.326Z,5.93
2023-04-09T06:59:05.837Z,5.96
2023-04-09T07:02:12.829Z,5.99
2023-04-09T07:05:18.773Z,6.07
2023-04-09T07:08:25.140Z,6.16
2023-04-09T07:11:33.228Z,6.29
2023-04-09T07:14:42.337Z,6.28
2023-04-09T07:17:48.119Z,6.23
2023-04-09T07:20:56.442Z,6.32
2023-04-09T07:24:02.283Z,6.38
2023-04-09T07:27:08.655Z,6.53
2023-04-09T07:30:17.314Z,6.62
2023-04-09T07:33:23.808Z,6.72
2023-04-09T07:36:29.991Z,6.81
2023-04-09T07:39:37.252Z,6.88
2023-04-09T07:42:44.000Z,6.87
2023-04-09T07:45:54.916Z,6.94
2023-04-09T07:49:00.352Z,7.01
2023-04-09T07:52:08.388Z,7.01
2023-04-09T07:55:13.968Z,6.90
2023-04-09T07:58:20.623Z,6.87
2023-04-09T08:01:28.828Z,6.85
2023-04-09T08:04:35.251Z,6.90
2023-04-09T08:07:41.121Z,6.92
2023-04-09T08:10:48.192Z,6.93
2023-04-09T08:13:53.651Z,6.99
2023-04-09T08:17:03.673Z,6.96
2023-04-09T08:20:10.862Z,6.93
2023-04-09T08:23:17.457Z,6.88
2023-04-09T08:26:23.143Z,6.91
2023-04-09T08:29:32.279Z,6.89
2023-04-09T08:32:40.569Z,6.93
2023-04-09T08:35:47.002Z,6.94
2023-04-09T08:38:53.545Z,6.94
2023-04-09T08:42:03.143Z,7.01
2023-04-09T08:45:09.910Z,7.09
2023-04-09T08:48:22.003Z,7.17
2023-04-09T08:51:29.041Z,7.27
2023-04-09T08:54:36.280Z,7.31
2023-04-09T08:57:42.974Z,7.34
2023-04-09T09:00:55.273Z,7.27
2023-04-09T09:04:09.307Z,7.27
2023-04-09T09:07:16.264Z,7.32
2023-04-09T09:10:22.582Z,7.35
2023-04-09T09:13:31.685Z,7.37
2023-04-09T09:16:40.478Z,7.36
2023-04-09T09:19:49.801Z,7.35
2023-04-09T09:22:57.944Z,7.40
2023-04-09T09:26:16.682Z,7.56
2023-04-09T09:29:22.983Z,7.59
2023-04-09T09:32:29.484Z,7.52
2023-04-09T09:35:52.141Z,7.46
2023-04-09T09:39:03.785Z,7.56
2023-04-09T09:42:11.886Z,7.65
2023-04-09T09:45:22.371Z,7.68
2023-04-09T09:48:28.513Z,7.68
2023-04-09T09:51:43.053Z,7.71
2023-04-09T09:54:56.130Z,7.76
2023-04-09T09:58:12.743Z,7.81
2023-04-09T10:01:25.066Z,7.85
2023-04-09T10:04:37.012Z,7.89
2023-04-09T10:07:46.891Z,7.96
2023-04-09T10:10:55.622Z,7.92
2023-04-09T10:14:02.113Z,7.96
2023-04-09T10:17:09.022Z,8.09
2023-04-09T10:20:26.322Z,8.18
2023-04-09T10:23:46.262Z,8.23
2023-04-09T10:26:52.384Z,8.41
2023-04-09T10:30:00.627Z,8.54
2023-04-09T10:33:14.876Z,8.61
2023-04-09T10:36:25.224Z,8.63
2023-04-09T10:39:36.404Z,8.69
2023-04-09T10:42:46.025Z,8.75
2023-04-09T10:45:54.681Z,8.75
2023-04-09T10:49:21.157Z,8.86
2023-04-09T10:52:35.335Z,8.93
2023-04-09T10:55:51.303Z,8.94
2023-04-09T10:58:57.141Z,8.92
2023-04-09T11:02:03.735Z,8.97
2023-04-09T11:05:35.163Z,8.86
2023-04-09T11:08:42.993Z,8.86
2023-04-09T11:11:57.804Z,9.00
2023-04-09T11:15:04.340Z,9.05
2023-04-09T11:18:10.916Z,9.19
2023-04-09T11:21:17.461Z,9.17
2023-04-09T11:24:23.015Z,9.17
2023-04-09T11:27:32.453Z,9.20
2023-04-09T11:30:38.892Z,9.14
2023-04-09T11:33:48.915Z,9.20
2023-04-09T11:36:54.431Z,9.35
2023-04-09T11:40:02.097Z,9.46
2023-04-09T11:43:11.882Z,9.49
2023-04-09T11:46:18.789Z,9.44
2023-04-09T11:49:25.695Z,9.58
2023-04-09T11:52:35.974Z,9.63
2023-04-09T11:55:41.537Z,9.74
2023-04-09T11:58:52.903Z,9.96
2023-04-09T12:02:02.123Z,10.06
2023-04-09T12:05:11.035Z,10.07
2023-04-09T12:08:17.355Z,10.05
2023-04-09T12:11:24.285Z,10.05
2023-04-09T12:14:32.872Z,9.92
2023-04-09T12:17:39.304Z,9.87
2023-04-09T12:20:47.760Z,9.90
2023-04-09T12:23:54.178Z,10.05
2023-04-09T12:27:00.383Z,10.16
2023-04-09T12:30:11.789Z,10.38
2023-04-09T12:33:17.477Z,10.62
2023-04-09T12:36:24.210Z,10.88
2023-04-09T12:39:29.741Z,11.20
2023-04-09T12:42:36.190Z,11.45
2023-04-09T12:45:44.477Z,11.58
2023-04-09T12:48:51.064Z,11.79
2023-04-09T12:51:56.823Z,11.98
2023-04-09T12:55:03.229Z,12.10
2023-04-09T12:58:08.746Z,12.22
2023-04-09T13:01:18.344Z,12.22
2023-04-09T13:04:24.162Z,12.06
2023-04-09T13:07:31.542Z,11.95
2023-04-09T13:10:37.627Z,11.79
2023-04-09T13:13:44.469Z,11.71
2023-04-09T13:16:53.100Z,11.62
2023-04-09T13:19:59.425Z,11.53
2023-04-09T13:23:05.771Z,11.43
2023-04-09T13:26:12.137Z,11.33
2023-04-09T13:29:18.155Z,11.33
2023-04-09T13:32:27.724Z,11.28
2023-04-09T13:35:34.086Z,11.24
2023-04-09T13:38:40.575Z,11.13
2023-04-09T13:41:46.925Z,10.96
2023-04-09T13:44:53.325Z,10.78
2023-04-09T13:48:01.643Z,10.48
2023-04-09T13:51:08.927Z,10.22
2023-04-09T13:54:14.470Z,9.89
2023-04-09T13:57:21.122Z,9.62
2023-04-09T14:00:26.573Z,9.48
2023-04-09T14:03:36.285Z,9.38
2023-04-09T14:06:42.490Z,9.22
2023-04-09T14:09:49.031Z,9.06
2023-04-09T14:12:54.773Z,8.96
2023-04-09T14:16:01.128Z,8.62
2023-04-09T14:19:10.497Z,8.71
2023-04-09T14:22:17.112Z,8.56
2023-04-09T14:25:22.753Z,8.48
2023-04-09T14:28:29.040Z,8.43
2023-04-09T14:31:34.782Z,8.31
2023-04-09T14:34:43.897Z,8.17
2023-04-09T14:37:49.505Z,8.08
2023-04-09T14:40:56.051Z,8.04
2023-04-09T14:44:01.492Z,8.02
2023-04-09T14:47:07.848Z,8.02
2023-04-09T14:50:16.400Z,8.02
2023-04-09T14:53:22.909Z,8.03
2023-04-09T14:56:28.644Z,8.10
2023-04-09T14:59:35.214Z,8.07
2023-04-09T15:02:41.854Z,8.01
2023-04-09T15:05:51.881Z,8.05
2023-04-09T15:08:57.615Z,8.05
2023-04-09T15:12:04.072Z,8.03
2023-04-09T15:15:11.485Z,8.05
2023-04-09T15:18:19.118Z,8.09
2023-04-09T15:21:29.298Z,8.14
2023-04-09T15:24:35.689Z,8.12
2023-04-09T15:27:41.169Z,8.14
2023-04-09T15:30:47.842Z,8.17
2023-04-09T15:33:53.573Z,8.13
2023-04-09T15:37:02.670Z,8.08
2023-04-09T15:40:09.141Z,8.14
2023-04-09T15:43:15.707Z,8.27
2023-04-09T15:46:21.607Z,8.34
2023-04-09T15:49:28.280Z,8.38
2023-04-09T15:52:36.693Z,8.35
2023-04-09T15:55:43.054Z,8.30
2023-04-09T15:58:49.040Z,8.23
2023-04-09T16:01:56.160Z,8.09
2023-04-09T16:05:01.813Z,8.05
2023-04-09T16:08:11.951Z,8.06
2023-04-09T16:11:18.134Z,8.11
2023-04-09T16:14:24.602Z,8.19
2023-04-09T16:17:30.752Z,8.16
2023-04-09T16:20:37.198Z,8.23
2023-04-09T16:23:45.945Z,8.33
2023-04-09T16:26:52.222Z,8.41
2023-04-09T16:29:57.733Z,8.39
2023-04-09T16:33:04.230Z,8.27
2023-04-09T16:36:10.691Z,8.19
2023-04-09T16:39:21.882Z,8.10
2023-04-09T16:42:28.376Z,8.05
2023-04-09T16:45:35.599Z,7.80
2023-04-09T16:48:42.334Z,7.69
2023-04-09T16:51:48.807Z,7.63
2023-04-09T16:54:57.148Z,7.50
2023-04-09T16:58:03.759Z,7.38
2023-04-09T17:01:09.501Z,7.29
2023-04-09T17:04:16.630Z,7.22
2023-04-09T17:07:22.819Z,7.21
2023-04-09T17:10:32.458Z,7.20
2023-04-09T17:13:39.086Z,7.03
2023-04-09T17:16:45.632Z,7.20
2023-04-09T17:19:51.263Z,7.13
2023-04-09T17:22:57.655Z,7.02
2023-04-09T17:26:06.048Z,7.04
2023-04-09T17:29:12.452Z,7.01
2023-04-09T17:32:18.891Z,6.95
2023-04-09T17:35:25.674Z,6.85
2023-04-09T17:38:32.064Z,6.81
2023-04-09T17:41:41.179Z,6.76
2023-04-09T17:44:47.988Z,6.63
2023-04-09T17:47:54.472Z,6.62
2023-04-09T17:50:59.996Z,6.60
2023-04-09T17:54:06.561Z,6.59
2023-04-09T17:57:15.829Z,6.57
2023-04-09T18:00:22.345Z,6.56
2023-04-09T18:03:28.860Z,6.54
2023-04-09T18:06:35.426Z,6.52
2023-04-09T18:09:41.183Z,6.49
2023-04-09T18:12:51.004Z,6.45
2023-04-09T18:15:56.955Z,6.38
2023-04-09T18:19:03.532Z,6.34
2023-04-09T18:22:09.249Z,6.29
2023-04-09T18:25:16.225Z,6.22
2023-04-09T18:28:24.512Z,6.14
2023-04-09T18:31:30.984Z,6.05
2023-04-09T18:34:36.731Z,5.93
2023-04-09T18:37:43.192Z,5.86
2023-04-09T18:40:48.855Z,5.82
2023-04-09T18:43:57.987Z,5.75
2023-04-09T18:47:05.090Z,5.69
2023-04-09T18:50:12.921Z,5.62
2023-04-09T18:53:18.782Z,5.58
2023-04-09T18:56:25.418Z,5.55
2023-04-09T18:59:35.255Z,5.45
2023-04-09T19:02:41.926Z,5.45
2023-04-09T19:05:47.726Z,5.44
2023-04-09T19:08:58.306Z,5.38
2023-04-09T19:12:04.646Z,5.40
2023-04-09T19:15:14.908Z,5.38
2023-04-09T19:18:20.444Z,5.34
2023-04-09T19:21:28.198Z,5.29
2023-04-09T19:24:33.822Z,5.26
2023-04-09T19:27:40.551Z,5.24
2023-04-09T19:30:50.794Z,5.26
2023-04-09T19:33:57.136Z,5.24
2023-04-09T19:37:02.836Z,5.34
2023-04-09T19:40:11.498Z,5.38
2023-04-09T19:43:17.833Z,5.44
2023-04-09T19:46:27.036Z,5.50
2023-04-09T19:49:32.690Z,5.54
2023-04-09T19:52:39.256Z,5.56
2023-04-09T19:55:45.002Z,5.49
2023-04-09T19:58:51.965Z,5.47
2023-04-09T20:02:01.036Z,5.49
2023-04-09T20:05:08.095Z,5.53
2023-04-09T20:08:15.930Z,5.57
2023-04-09T20:11:22.822Z,5.57
2023-04-09T20:14:28.346Z,5.62
2023-04-09T20:17:38.822Z,5.63
2023-04-09T20:20:44.620Z,5.63
2023-04-09T20:23:51.133Z,5.63
2023-04-09T20:26:57.076Z,5.66
2023-04-09T20:30:03.577Z,5.74
2023-04-09T20:33:11.929Z,5.77
2023-04-09T20:36:19.085Z,5.69
2023-04-09T20:39:26.852Z,5.78
2023-04-09T20:42:33.191Z,5.74
2023-04-09T20:45:38.764Z,5.75
2023-04-09T20:48:47.913Z,5.79
2023-04-09T20:51:53.457Z,5.78
2023-04-09T20:55:01.141Z,5.72
2023-04-09T20:58:06.698Z,5.80
2023-04-09T21:01:13.506Z,5.77
2023-04-09T21:04:21.972Z,5.80
2023-04-09T21:07:28.562Z,5.78
2023-04-09T21:10:34.071Z,5.75
2023-04-09T21:13:53.744Z,5.73
2023-04-09T21:17:00.562Z,5.71
2023-04-09T21:20:11.563Z,5.69
2023-04-09T21:23:17.474Z,5.71
2023-04-09T21:26:25.284Z,5.70
2023-04-09T21:29:31.406Z,5.73
2023-04-09T21:32:37.719Z,5.75
2023-04-09T21:35:46.257Z,5.77
2023-04-09T21:38:52.734Z,5.77
2023-04-09T21:41:58.644Z,5.79
2023-04-09T21:45:04.989Z,5.79
2023-04-09T21:48:10.738Z,5.78
2023-04-09T21:51:19.939Z,5.73
2023-04-09T21:54:25.660Z,5.75
2023-04-09T21:57:32.095Z,5.76
2023-04-09T22:00:38.240Z,5.75
2023-04-09T22:03:44.961Z,5.73
2023-04-09T22:06:53.904Z,5.69
2023-04-09T22:10:01.136Z,5.69
2023-04-09T22:13:06.685Z,5.66
2023-04-09T22:16:13.338Z,5.66
2023-04-09T22:19:18.838Z,5.63
2023-04-09T22:22:28.182Z,5.56
2023-04-09T22:25:35.365Z,5.50
2023-04-09T22:28:41.889Z,5.50
2023-04-09T22:31:48.108Z,5.53
2023-04-09T22:34:54.659Z,5.52
2023-04-09T22:38:03.544Z,5.48
2023-04-09T22:41:10.182Z,5.50
2023-04-09T22:44:15.649Z,5.49
2023-04-09T22:47:22.002Z,5.48
2023-04-09T22:50:31.004Z,5.44
2023-04-09T22:53:40.170Z,5.47
2023-04-09T22:56:46.557Z,5.48
2023-04-09T22:59:52.838Z,5.48
2023-04-09T23:02:58.680Z,5.44
2023-04-09T23:06:05.305Z,5.41
2023-04-09T23:09:14.116Z,5.39
2023-04-09T23:12:20.679Z,5.34
2023-04-09T23:15:26.737Z,5.33
2023-04-09T23:18:33.094Z,5.24
2023-04-09T23:21:38.528Z,5.17
2023-04-09T23:24:48.750Z,5.16
2023-04-09T23:27:54.223Z,5.17
2023-04-09T23:31:01.405Z,5.21
2023-04-09T23:34:06.865Z,5.28
2023-04-09T23:37:13.414Z,5.33
2023-04-09T23:40:22.032Z,5.31
2023-04-09T23:43:28.552Z,5.38
2023-04-09T23:46:34.098Z,5.41
2023-04-09T23:49:40.929Z,5.39
2023-04-09T23:52:51.835Z,5.41
2023-04-09T23:56:01.096Z,5.40
2023-04-09T23:59:06.937Z,5.35
